Main page
METAR-TAF:

METAR-TAF

Airports :

Wanaham

Lifou, New Caledonia

latitude: 20-46S, longitude: 167-14E, elevation: 28 m

METAR: missing

Time: 23:53 (12:53 UTC)

Forecast

The report was made 1 hour and 53 minutes ago, at 11:00 UTC
Forecast valid from 20 at 12 UTC to 21 at 12 UTC
Wind 5 kt from the South/Southeast
Visibility 10 km or more
Scattered clouds at a height of 3500 ft
Probability 30% :
Temporary
from 20 at 12 UTC to 20 at 18 UTC
rain showers
From 21 at 0000 UTC
Wind 12 kt from the Southeast
Visibility 10 km or more
Few clouds at a height of 2500 ft
Scattered clouds at a height of 3500 ft
Broken clouds at a height of 5000 ft
Probability 40% :
Temporary
from 21 at 06 UTC to 21 at 09 UTC
Wind 15 kt from the Southeast with gusts up to 25 kt
rain showers,

TAF: NWWL 201100Z 2012/2112 16005KT 9999 SCT035 PROB30 TEMPO 2012/2018 SHRA FM210000 13012KT 9999 FEW025 SCT035 BKN050 PROB40 TEMPO 2106/2109 13015G25KT SHRA

Weather observations and forecasts of more than 4000 airports (METAR and TAF reports).

The available stations are represented by yellow and red dots on the map.

Hover mouse over dot to see the name of the station.

Then click to see weather observations and forecasts.

To change the map : click on the green buttons with a black cross to zoom in, on the green button with a dash to zoom out, or on the green arrows for adjacent maps.


METAR-TAF: